PTKR  Koror, Palau, NWS Office Airport

Add Bookmark

Federated States of Micronesia

Status
Operational
Latitude Longitude
7° 19' 48" N 134° 28' 47" E
7.330000 134.480000
Local (DST + 9) UTC (GMT + 9)
Oct 31, 2014 03:11 Oct 30, 2014 18:11
Sunrise-Sunset Local UTC
Begin Civil Twilight 05:27 20:27
Sunrise 05:48 20:48
Sunset 05:42 08:42
End Civil Twilight 06:04 09:04

Current Weather

METAR Observed MVFR
PTKR 301750Z 25005KT 13SM -SHRA BKN016TCU OVC110 26/25 A2970 Thu, Oct 30, 2014 @ 17:50 UTC
(21 Minutes ago)
Marginal Visual Flight Rules
Wind Visibility Clouds Conditions
250° at 5 knots (9 kph) 21000 meters
  • Broken at 1,600' AGL
  • Overcast at 11,000' AGL
  • Light Rain Showers
Temperatures Readings Precipitation
Current Temp 26°C (79°F)
Low Temp 25°C (77°F)
High Temp 28°C (82°F)
Dewpoint 25°C (77°F)
Humidity 94%
Altimeter 29.7"Hg
Sea Level Pressure 1005.8mb
Field Elevation 98.43'
None Recorded

Additional weather within a 92.6km radius of PTKR

Map ICAO Location
PTRO 8.1km N (360°)

24 Hour Weather History

Loading
-

24 Hour Weather Graphs

Loading
-

CheckWX.com is intended as a tool to help pilots better visualize weather data. It is not intended as a substitute for an official weather briefing obtained from a Flight Service Station. CheckWX.com does not meet the FAA requirements for an official pre-flight weather briefing. Therefore, it's important that pilots still call and obtain an official FSS pre-flight weather briefing.